Terminal Aerodrome Forecast
Issued by NWS

Home | Current Version | Previous Version | Text Only | Print | Product List | Glossary On
Versions: 1 2 3 4 5 6 7 8 9 10 11 12
000
FTUS44 KLZK 270531
TAFHRO
TAF
KHRO 270531Z 2706/2806 VRB03KT P6SM VCSH SCT050 OVC100
      TEMPO 2706/2710 5SM -SHRA BR BKN050
     FM271000 00000KT P6SM SCT050
      TEMPO 2710/2714 4SM BR
     FM271600 12008KT P6SM SCT100 BKN250
     FM280000 VRB03KT P6SM SCT250=

USA.gov is the U.S. government's official web portal to all federal, state and local government web resources and services.